Time;durP1;ratioP1;P1;durP2;ratioP2;P2;SDS_P1;SDS_P2;PMS_P1;PMS_P2;Temp;Humidity;BMP_temperature;BMP_pressure;BME280_temperature;BME280_humidity;BME280_pressure;Samples;Min_cycle;Max_cycle;Signal;HPM_P1;HPM_P2
2022/05/11 00:01:36;;;;;;;22.90;11.73;;;;;;;17.36;100.00;97968.75;4978433;28;20038;-56
2022/05/11 00:04:05;;;;;;;24.83;11.68;;;;;;;17.12;100.00;97964.19;4980000;28;20027;-56
2022/05/11 00:06:31;;;;;;;23.65;11.48;;;;;;;17.17;100.00;97965.66;4979462;28;20038;-54
2022/05/11 00:08:57;;;;;;;23.80;11.05;;;;;;;17.39;100.00;97959.75;4980349;28;20037;-57
2022/05/11 00:11:24;;;;;;;25.00;11.43;;;;;;;17.10;100.00;97963.47;4979502;28;20038;-57
2022/05/11 00:13:49;;;;;;;22.45;11.27;;;;;;;17.02;100.00;97963.16;4979876;28;20124;-56
2022/05/11 00:16:15;;;;;;;20.55;9.93;;;;;;;17.53;100.00;97957.88;4979695;28;20169;-55
2022/05/11 00:18:41;;;;;;;21.27;10.85;;;;;;;17.38;100.00;97958.94;4979124;28;20396;-55
2022/05/11 00:21:08;;;;;;;23.70;11.25;;;;;;;17.36;100.00;97952.91;4979417;28;20113;-55
2022/05/11 00:23:33;;;;;;;23.92;10.95;;;;;;;17.10;100.00;97960.00;4979415;28;20030;-56
2022/05/11 00:25:59;;;;;;;21.13;10.73;;;;;;;17.23;100.00;97954.72;4979293;28;20038;-55
2022/05/11 00:28:25;;;;;;;22.15;11.20;;;;;;;17.29;100.00;97954.28;4979836;28;20022;-56
2022/05/11 00:30:51;;;;;;;21.20;10.93;;;;;;;17.22;100.00;97950.38;4979276;28;20050;-56
2022/05/11 00:33:17;;;;;;;22.75;10.98;;;;;;;17.39;100.00;97950.09;4979593;28;20088;-56
2022/05/11 00:35:45;;;;;;;20.92;10.60;;;;;;;17.24;100.00;97951.13;4979124;28;20096;-55
2022/05/11 00:38:11;;;;;;;21.73;11.30;;;;;;;17.22;100.00;97950.38;4980105;28;20029;-56
2022/05/11 00:40:46;;;;;;;29.25;11.57;;;;;;;17.02;100.00;97951.75;4976501;28;20038;-56
2022/05/11 00:43:11;;;;;;;25.35;11.50;;;;;;;16.85;100.00;97952.91;4977987;28;20635;-55
2022/05/11 00:45:41;;;;;;;25.23;11.55;;;;;;;16.88;100.00;97956.19;4979079;28;20041;-56
2022/05/11 00:50:55;;;;;;;24.65;11.35;;;;;;;17.15;100.00;97953.47;4978149;28;20045;-55
2022/05/11 00:53:21;;;;;;;21.40;10.52;;;;;;;16.99;100.00;97951.97;4979419;28;20018;-56
2022/05/11 00:55:51;;;;;;;23.05;11.32;;;;;;;16.94;100.00;97944.38;4978596;28;20037;-56
2022/05/11 00:58:39;;;;;;;23.80;11.15;;;;;;;16.90;100.00;97941.09;4979508;28;20539;-55
2022/05/11 01:01:05;;;;;;;20.30;10.48;;;;;;;16.97;100.00;97944.19;4978558;28;20077;-54
2022/05/11 01:03:37;;;;;;;19.98;10.68;;;;;;;16.75;100.00;97948.22;4979528;28;20112;-54
2022/05/11 01:06:02;;;;;;;23.27;11.15;;;;;;;16.77;100.00;97946.31;4978870;28;20046;-55
2022/05/11 01:08:30;;;;;;;23.15;10.57;;;;;;;16.64;100.00;97942.84;4979335;28;20030;-54
2022/05/11 01:10:56;;;;;;;26.02;11.35;;;;;;;16.61;100.00;97943.03;4978626;28;20039;-55
2022/05/11 01:13:22;;;;;;;25.13;11.38;;;;;;;16.61;100.00;97943.03;4979022;28;20502;-56
2022/05/11 01:15:50;;;;;;;22.92;11.20;;;;;;;16.76;100.00;97936.75;4978651;28;20042;-55
2022/05/11 01:18:17;;;;;;;23.13;11.13;;;;;;;16.74;100.00;97938.66;4979157;28;20109;-55
2022/05/11 01:20:44;;;;;;;23.90;11.75;;;;;;;16.79;100.00;97945.41;4978516;28;20041;-55
2022/05/11 01:23:26;;;;;;;27.15;12.00;;;;;;;16.71;100.00;97935.38;4978937;28;20034;-54
2022/05/11 01:25:51;;;;;;;21.63;11.17;;;;;;;16.51;100.00;97941.97;4978375;28;20558;-54
2022/05/11 01:28:18;;;;;;;23.88;11.88;;;;;;;16.49;100.00;97938.59;4979027;28;20030;-56
2022/05/11 01:31:01;;;;;;;26.25;11.48;;;;;;;16.42;100.00;97942.56;4984253;28;20038;-54
2022/05/11 01:33:26;;;;;;;29.05;12.02;;;;;;;16.48;100.00;97942.16;4985963;28;20070;-54
2022/05/11 01:36:21;;;;;;;21.13;11.65;;;;;;;16.40;100.00;97944.47;4985166;28;20109;-54
2022/05/11 01:38:49;;;;;;;23.27;11.25;;;;;;;16.66;100.00;97940.09;4985581;28;20699;-55
2022/05/11 01:41:22;;;;;;;28.60;12.07;;;;;;;16.37;100.00;97941.06;4984805;28;20045;-55
2022/05/11 01:43:48;;;;;;;21.85;11.60;;;;;;;16.30;100.00;97934.53;4985551;28;20022;-54
2022/05/11 01:46:16;;;;;;;26.33;12.30;;;;;;;16.36;100.00;97944.66;4984516;28;20058;-56
2022/05/11 01:48:42;;;;;;;23.85;11.90;;;;;;;16.16;100.00;97950.38;4984787;28;20034;-55
2022/05/11 01:51:07;;;;;;;22.48;11.40;;;;;;;16.32;100.00;97942.31;4984735;28;20111;-55
2022/05/11 01:53:32;;;;;;;22.40;11.60;;;;;;;16.23;100.00;97949.03;4985060;28;20030;-55
2022/05/11 01:55:58;;;;;;;24.90;11.50;;;;;;;16.08;100.00;97955.28;4984340;28;20133;-56
2022/05/11 01:58:24;;;;;;;24.42;11.90;;;;;;;16.15;100.00;97951.31;4985003;28;20129;-56
2022/05/11 02:00:49;;;;;;;24.75;12.10;;;;;;;16.02;100.00;97950.41;4984667;28;20052;-56
2022/05/11 02:03:20;;;;;;;22.23;12.20;;;;;;;15.95;100.00;97945.56;4985044;28;20038;-54
2022/05/11 02:08:36;;;;;;;26.05;12.30;;;;;;;15.80;100.00;97942.09;4984818;28;20479;-55
2022/05/11 02:11:02;;;;;;;24.55;12.48;;;;;;;15.74;100.00;97946.91;4984467;28;20026;-55
2022/05/11 02:13:28;;;;;;;35.38;13.15;;;;;;;15.92;100.00;97945.75;4984646;28;20060;-56
2022/05/11 02:15:54;;;;;;;24.73;11.90;;;;;;;15.73;100.00;97953.06;4984830;28;20034;-55
2022/05/11 02:18:19;;;;;;;25.98;12.35;;;;;;;15.50;100.00;97950.09;4984882;28;20026;-55
2022/05/11 02:20:44;;;;;;;24.90;12.20;;;;;;;15.53;100.00;97952.53;4984260;28;20077;-56
2022/05/11 02:23:14;;;;;;;23.33;11.95;;;;;;;15.49;100.00;97953.66;4984783;28;20038;-55
2022/05/11 02:25:45;;;;;;;27.00;12.02;;;;;;;15.43;100.00;97949.63;4984222;28;20057;-57
2022/05/11 02:28:12;;;;;;;26.00;12.05;;;;;;;15.61;100.00;97950.25;4984683;28;20105;-55
2022/05/11 02:30:38;;;;;;;28.67;13.02;;;;;;;15.43;100.00;97954.88;4984551;28;20037;-56
2022/05/11 02:33:03;;;;;;;25.55;12.95;;;;;;;15.30;100.00;97948.69;4984928;28;20027;-56
2022/05/11 02:35:28;;;;;;;24.48;12.95;;;;;;;15.34;100.00;97951.97;4984375;28;20491;-57
2022/05/11 02:37:57;;;;;;;27.10;12.65;;;;;;;15.53;100.00;97949.03;4984620;28;20026;-56
2022/05/11 02:40:26;;;;;;;26.17;12.70;;;;;;;15.28;100.00;97947.94;4983332;28;20038;-57
2022/05/11 02:42:52;;;;;;;27.95;12.70;;;;;;;15.43;100.00;97956.66;4981130;28;20030;-56
2022/05/11 02:45:18;;;;;;;25.45;12.27;;;;;;;15.22;100.00;97950.94;4981382;28;20041;-56
2022/05/11 02:47:45;;;;;;;24.40;12.35;;;;;;;15.57;100.00;97959.28;4981375;28;20068;-57
2022/05/11 02:50:18;;;;;;;25.70;12.65;;;;;;;15.51;100.00;97946.53;4980879;28;20038;-55
2022/05/11 02:52:43;;;;;;;23.17;12.35;;;;;;;15.22;100.00;97950.94;4982051;28;20080;-57
2022/05/11 02:55:09;;;;;;;27.25;13.20;;;;;;;15.19;100.00;97951.97;4980458;28;20030;-55
2022/05/11 02:57:35;;;;;;;28.15;13.40;;;;;;;15.06;100.00;97958.91;4981543;28;20033;-57
2022/05/11 03:00:00;;;;;;;25.60;11.75;;;;;;;15.22;100.00;97959.66;4981344;28;20085;-56
2022/05/11 03:02:26;;;;;;;28.98;13.13;;;;;;;15.46;100.00;97953.84;4981197;28;20038;-56
2022/05/11 03:04:52;;;;;;;24.58;12.60;;;;;;;15.02;100.00;97960.03;4981388;28;20026;-56
2022/05/11 03:07:18;;;;;;;29.75;13.45;;;;;;;14.86;100.00;97964.50;4980448;28;20069;-59
2022/05/11 03:09:44;;;;;;;25.70;12.68;;;;;;;15.02;100.00;97960.88;4980630;28;20693;-55
2022/05/11 03:12:10;;;;;;;27.67;12.68;;;;;;;15.23;100.00;97971.00;4980860;28;20038;-57
2022/05/11 03:14:35;;;;;;;28.98;13.75;;;;;;;14.87;100.00;97969.66;4981285;28;20038;-55
2022/05/11 03:17:02;;;;;;;30.52;14.35;;;;;;;14.42;100.00;97964.31;4980687;28;20451;-55
2022/05/11 03:19:28;;;;;;;27.15;13.85;;;;;;;14.51;100.00;97972.59;4981090;28;20033;-56
2022/05/11 03:21:53;;;;;;;26.65;13.13;;;;;;;14.54;100.00;97969.78;4980557;28;20038;-55
2022/05/11 03:24:19;;;;;;;32.53;14.55;;;;;;;14.32;100.00;97970.16;4980601;28;20080;-55
2022/05/11 03:26:44;;;;;;;27.10;14.02;;;;;;;14.38;100.00;97969.84;4980525;28;20074;-57
2022/05/11 03:29:11;;;;;;;30.15;13.73;;;;;;;14.46;100.00;97963.22;4980847;28;20030;-56
2022/05/11 03:31:37;;;;;;;27.70;13.02;;;;;;;14.60;100.00;97964.25;4980448;28;20031;-55
2022/05/11 03:36:47;;;;;;;26.60;13.63;;;;;;;14.33;100.00;97967.47;4980011;28;20064;-55
2022/05/11 03:39:15;;;;;;;29.98;13.60;;;;;;;14.50;100.00;97970.91;4980740;28;20030;-55
2022/05/11 03:41:42;;;;;;;25.92;12.68;;;;;;;14.61;100.00;97974.66;4980024;28;20046;-56
2022/05/11 03:44:07;;;;;;;28.02;13.23;;;;;;;14.68;100.00;97972.50;4980724;28;20399;-56
2022/05/11 03:46:33;;;;;;;30.80;14.20;;;;;;;14.30;100.00;97970.28;4979455;28;20555;-56
2022/05/11 03:48:58;;;;;;;28.13;13.77;;;;;;;14.60;100.00;97970.31;4980744;28;20058;-55
2022/05/11 03:51:24;;;;;;;29.75;13.65;;;;;;;14.40;100.00;97962.72;4980017;28;20045;-55
2022/05/11 03:53:50;;;;;;;24.70;12.95;;;;;;;14.52;100.00;97966.41;4979155;28;20105;-55
2022/05/11 03:56:17;;;;;;;29.88;13.15;;;;;;;14.52;100.00;97966.41;4979428;28;20196;-55
2022/05/11 03:58:44;;;;;;;33.65;13.38;;;;;;;14.57;100.00;97965.25;4979777;28;20534;-56
2022/05/11 04:01:10;;;;;;;28.55;13.05;;;;;;;14.50;100.00;97963.91;4979699;28;20100;-54
2022/05/11 04:03:35;;;;;;;24.90;13.07;;;;;;;14.49;100.00;97956.13;4980047;28;20042;-56
2022/05/11 04:06:00;;;;;;;27.60;13.25;;;;;;;14.58;100.00;97966.09;4979459;28;20078;-55
2022/05/11 04:08:26;;;;;;;29.45;13.27;;;;;;;14.65;100.00;97956.94;4980177;28;20018;-56
2022/05/11 04:10:52;;;;;;;27.15;12.63;;;;;;;15.26;100.00;97954.25;4979446;28;20039;-55
2022/05/11 04:13:17;;;;;;;23.55;12.25;;;;;;;15.55;100.00;97950.66;4979896;28;20658;-55
2022/05/11 04:15:42;;;;;;;26.00;11.65;;;;;;;15.27;100.00;97958.53;4979830;28;20031;-55
2022/05/11 04:18:08;;;;;;;25.75;12.15;;;;;;;15.32;100.00;97959.09;4979958;28;20102;-58
2022/05/11 04:20:33;;;;;;;27.80;12.30;;;;;;;15.23;100.00;97948.19;4979692;28;20122;-56
2022/05/11 04:22:58;;;;;;;27.95;12.88;;;;;;;15.23;100.00;97953.47;4979950;28;20026;-55
2022/05/11 04:25:24;;;;;;;27.92;12.68;;;;;;;15.29;100.00;97954.03;4979314;28;20030;-57
2022/05/11 04:27:49;;;;;;;24.48;12.25;;;;;;;15.06;100.00;97956.28;4979437;28;20554;-56
2022/05/11 04:30:16;;;;;;;28.77;13.60;;;;;;;15.16;100.00;97957.41;4979299;28;20038;-57
2022/05/11 04:32:42;;;;;;;23.83;12.18;;;;;;;15.55;100.00;97949.78;4979540;28;20057;-56
2022/05/11 04:35:08;;;;;;;30.60;12.55;;;;;;;15.29;100.00;97951.41;4979351;28;20137;-55
2022/05/11 04:37:33;;;;;;;22.02;12.52;;;;;;;15.46;100.00;97953.00;4979703;28;20097;-57
2022/05/11 04:39:59;;;;;;;25.15;12.65;;;;;;;15.44;100.00;97961.00;4979523;28;20131;-55
2022/05/11 04:42:25;;;;;;;27.30;12.80;;;;;;;15.82;100.00;97965.66;4977493;28;20034;-57
2022/05/11 04:44:53;;;;;;;24.73;12.77;;;;;;;15.48;100.00;97959.03;4979201;28;20046;-56
2022/05/11 04:47:18;;;;;;;26.40;12.07;;;;;;;15.50;100.00;97963.22;4978747;28;20530;-56
2022/05/11 04:49:44;;;;;;;25.67;12.20;;;;;;;15.89;100.00;97961.72;4979612;28;20029;-56
2022/05/11 04:52:13;;;;;;;21.35;11.88;;;;;;;15.49;100.00;97972.03;4978368;28;20050;-56
2022/05/11 04:54:45;;;;;;;27.70;13.25;;;;;;;15.43;100.00;97969.81;4978973;28;20395;-57
2022/05/11 04:57:11;;;;;;;25.77;12.70;;;;;;;15.84;100.00;97970.84;4978723;28;20463;-56
2022/05/11 04:59:40;;;;;;;22.65;11.90;;;;;;;16.00;100.00;97969.75;4978943;28;20018;-56
2022/05/11 05:02:06;;;;;;;25.13;12.13;;;;;;;15.93;100.00;97965.81;4978517;28;20045;-57
2022/05/11 05:04:32;;;;;;;26.40;12.75;;;;;;;16.27;100.00;97961.06;4978874;28;20034;-58
2022/05/11 05:06:58;;;;;;;22.55;12.23;;;;;;;15.98;100.00;97966.38;4978427;28;20455;-55
2022/05/11 05:09:24;;;;;;;25.58;12.85;;;;;;;15.89;100.00;97966.97;4978381;28;20523;-55
2022/05/11 05:11:50;;;;;;;28.08;13.98;;;;;;;16.29;100.00;97964.44;4978409;28;20408;-55
2022/05/11 05:14:16;;;;;;;24.27;12.88;;;;;;;16.69;100.00;97967.06;4978995;28;20026;-55
2022/05/11 05:16:41;;;;;;;25.70;12.40;;;;;;;16.98;100.00;97955.56;4978467;28;20039;-55
2022/05/11 05:19:07;;;;;;;26.27;13.00;;;;;;;17.29;100.00;97959.56;4979031;28;20061;-55
2022/05/11 05:21:33;;;;;;;24.33;13.10;;;;;;;16.62;100.00;97963.16;4977937;28;20046;-55
2022/05/11 05:23:59;;;;;;;25.83;12.13;;;;;;;17.15;100.00;97964.00;4977670;28;20034;-55
2022/05/11 05:26:25;;;;;;;25.95;12.35;;;;;;;16.89;100.00;97965.78;4973855;28;20516;-56
2022/05/11 05:31:48;;;;;;;26.15;12.35;;;;;;;17.40;100.00;97974.66;4971757;28;20128;-55
2022/05/11 05:34:14;;;;;;;28.30;13.20;;;;;;;17.88;100.00;97970.41;4978480;28;20031;-55
2022/05/11 05:36:41;;;;;;;25.90;12.82;;;;;;;17.94;100.00;97970.88;4977787;28;20129;-55
2022/05/11 05:39:06;;;;;;;27.55;13.00;;;;;;;18.16;100.00;97971.06;4977594;28;20031;-56
2022/05/11 05:41:32;;;;;;;27.63;12.38;;;;;;;19.11;100.00;97965.78;4977454;28;20077;-56
2022/05/11 05:43:58;;;;;;;27.77;13.02;;;;;;;19.50;100.00;97968.97;4978306;28;20041;-57
2022/05/11 05:46:24;;;;;;;21.27;11.60;;;;;;;20.15;100.00;97966.53;4978441;28;20042;-57
2022/05/11 05:48:50;;;;;;;21.88;11.90;;;;;;;21.48;100.00;97967.84;4978759;28;20092;-55
2022/05/11 05:51:17;;;;;;;25.08;11.82;;;;;;;23.08;100.00;97966.03;4977025;28;20266;-55
2022/05/11 05:53:44;;;;;;;20.83;10.65;;;;;;;24.11;100.00;97964.28;4978420;28;20030;-57
2022/05/11 05:56:11;;;;;;;26.67;11.02;;;;;;;23.50;100.00;97960.34;4978117;28;20121;-55
2022/05/11 05:58:37;;;;;;;22.27;10.82;;;;;;;24.87;94.99;97955.03;4978341;28;20077;-55
2022/05/11 06:01:05;;;;;;;21.83;10.43;;;;;;;26.20;83.64;97952.97;4978040;28;20038;-55
2022/05/11 06:03:32;;;;;;;18.73;10.25;;;;;;;26.60;79.13;97956.75;4978540;28;20022;-56
2022/05/11 06:05:58;;;;;;;18.13;10.15;;;;;;;27.24;74.92;97956.03;4978136;28;20031;-56
2022/05/11 06:08:24;;;;;;;17.80;9.63;;;;;;;26.60;75.34;97954.06;4977815;28;20041;-57
2022/05/11 06:10:53;;;;;;;18.52;9.15;;;;;;;27.23;70.63;97955.19;4978122;28;20030;-58
2022/05/11 06:13:23;;;;;;;15.57;9.38;;;;;;;27.76;64.73;97955.59;4978043;28;20404;-56
2022/05/11 06:15:54;;;;;;;15.68;8.63;;;;;;;26.29;69.15;97962.66;4973023;28;20149;-57
2022/05/11 06:18:21;;;;;;;13.60;7.80;;;;;;;28.69;59.36;97955.78;4962329;28;20033;-57
2022/05/11 06:20:51;;;;;;;14.85;8.32;;;;;;;30.54;55.03;97966.72;4967684;28;20060;-57
2022/05/11 06:23:17;;;;;;;14.52;8.60;;;;;;;28.62;62.27;97961.06;4982096;28;21060;-57
2022/05/11 06:25:42;;;;;;;13.30;8.45;;;;;;;27.52;64.01;97955.69;4980539;28;21211;-56
2022/05/11 06:28:08;;;;;;;13.32;7.30;;;;;;;29.16;56.69;97955.59;4980300;28;20577;-56
2022/05/11 06:30:34;;;;;;;14.15;7.53;;;;;;;28.17;58.49;97951.91;4979133;28;20149;-56
2022/05/11 06:33:00;;;;;;;12.85;7.20;;;;;;;27.55;57.59;97953.47;4982235;28;20026;-56
2022/05/11 06:35:26;;;;;;;12.10;7.00;;;;;;;29.84;53.81;97947.47;4981635;28;20794;-56
2022/05/11 06:37:54;;;;;;;13.82;7.22;;;;;;;30.31;51.38;97950.72;4981270;28;20053;-57
2022/05/11 06:40:20;;;;;;;13.10;6.97;;;;;;;33.54;43.24;97951.88;4981336;28;20052;-56
2022/05/11 06:42:45;;;;;;;10.60;6.57;;;;;;;31.46;45.02;97956.94;4981429;28;20053;-58
2022/05/11 06:45:11;;;;;;;8.73;6.30;;;;;;;30.72;46.04;97955.53;4981498;28;20034;-57
2022/05/11 06:47:37;;;;;;;12.75;6.97;;;;;;;28.54;51.46;97953.06;4981577;28;20034;-56
2022/05/11 06:50:04;;;;;;;10.27;6.43;;;;;;;28.81;50.73;97951.69;4981333;28;20456;-57
2022/05/11 06:52:29;;;;;;;9.15;6.22;;;;;;;29.12;48.93;97951.56;4981503;28;20857;-58
2022/05/11 07:00:28;;;;;;;10.75;6.10;;;;;;;30.15;46.74;97947.25;4961549;28;20049;-57
2022/05/11 07:02:53;;;;;;;14.10;7.22;;;;;;;28.21;49.97;97948.72;4961783;28;20023;-56
2022/05/11 07:05:19;;;;;;;12.27;5.87;;;;;;;30.83;47.28;97946.09;4962311;28;20027;-56
2022/05/11 07:07:44;;;;;;;12.68;6.30;;;;;;;30.37;46.03;97939.25;4961159;28;20274;-56
2022/05/11 07:10:10;;;;;;;9.43;6.05;;;;;;;30.08;46.98;97946.31;4961359;28;20027;-56
2022/05/11 07:12:38;;;;;;;10.82;5.85;;;;;;;29.72;48.39;97946.25;4962429;28;20073;-57
2022/05/11 07:15:07;;;;;;;10.13;5.78;;;;;;;30.91;45.61;97933.34;4976395;28;20022;-57
2022/05/11 07:17:38;;;;;;;11.43;6.07;;;;;;;29.34;47.47;97932.94;4961113;28;20628;-58
2022/05/11 07:20:16;;;;;;;10.38;6.10;;;;;;;29.91;46.65;97939.50;4961332;28;20023;-58
2022/05/11 07:22:41;;;;;;;12.20;5.88;;;;;;;30.62;45.84;97931.63;4961863;28;20062;-58
2022/05/11 07:25:10;;;;;;;11.13;5.90;;;;;;;31.30;45.07;97934.69;4961542;28;20035;-57
2022/05/11 07:27:35;;;;;;;7.05;5.68;;;;;;;30.67;44.70;97928.34;4980341;28;20037;-57
2022/05/11 07:30:01;;;;;;;11.02;5.70;;;;;;;32.60;43.14;97925.94;4981242;28;20026;-58
2022/05/11 07:32:27;;;;;;;9.40;5.40;;;;;;;33.80;41.32;97923.97;4980275;28;20138;-56
2022/05/11 07:34:53;;;;;;;11.25;5.30;;;;;;;34.07;40.26;97920.31;4980952;28;20822;-57
2022/05/11 07:37:19;;;;;;;9.40;4.93;;;;;;;32.12;41.59;97923.31;4980308;28;20117;-57
2022/05/11 07:39:44;;;;;;;8.90;5.22;;;;;;;32.11;42.90;97919.78;4980644;28;20033;-56
2022/05/11 07:42:10;;;;;;;10.80;5.22;;;;;;;32.63;42.56;97909.31;4980100;28;20042;-58
2022/05/11 07:44:36;;;;;;;7.43;4.82;;;;;;;34.68;40.95;97914.34;4981147;28;20034;-57
2022/05/11 07:47:01;;;;;;;13.70;4.80;;;;;;;31.92;41.71;97910.53;4980288;28;20045;-57
2022/05/11 07:49:26;;;;;;;7.32;5.10;;;;;;;33.76;39.17;97911.06;4980154;28;20053;-59
2022/05/11 07:51:52;;;;;;;6.93;4.60;;;;;;;35.03;36.75;97903.00;4980299;28;20042;-57
2022/05/11 07:54:19;;;;;;;6.53;4.78;;;;;;;37.20;34.46;97905.22;4980376;28;20034;-57
2022/05/11 08:02:12;;;;;;;6.20;4.30;;;;;;;33.08;39.23;97909.50;4980053;28;20463;-57
2022/05/11 08:04:39;;;;;;;6.18;4.53;;;;;;;32.35;39.90;97910.28;4980378;28;20030;-57
2022/05/11 08:07:05;;;;;;;7.90;4.43;;;;;;;33.27;38.79;97909.72;4980018;28;20034;-57
2022/05/11 08:09:30;;;;;;;6.60;4.18;;;;;;;32.50;39.68;97903.84;4979500;28;20030;-59
2022/05/11 08:11:56;;;;;;;8.10;4.55;;;;;;;34.38;38.24;97904.13;4979835;28;20042;-57
2022/05/11 08:14:25;;;;;;;6.18;4.60;;;;;;;36.13;35.74;97909.53;4980080;28;20491;-57
2022/05/11 08:16:54;;;;;;;10.45;4.97;;;;;;;34.65;36.70;97903.09;4978586;28;20049;-58
2022/05/11 08:19:20;;;;;;;6.50;4.63;;;;;;;34.40;36.83;97905.78;4980010;28;20023;-58
2022/05/11 08:21:47;;;;;;;5.78;4.25;;;;;;;34.66;36.61;97904.75;4979014;28;20053;-57
2022/05/11 08:24:12;;;;;;;6.97;3.95;;;;;;;32.40;38.51;97894.28;4980148;28;20112;-58
2022/05/11 08:26:38;;;;;;;5.03;4.00;;;;;;;33.71;37.45;97890.09;4979567;28;20587;-57
2022/05/11 08:29:03;;;;;;;5.57;3.97;;;;;;;32.70;38.94;97880.47;4980252;28;20105;-57
2022/05/11 08:34:12;;;;;;;6.43;3.70;;;;;;;35.60;37.37;97889.28;4980217;28;20638;-57
2022/05/11 08:36:38;;;;;;;5.65;4.20;;;;;;;33.27;40.31;97888.09;4979222;28;20050;-57
2022/05/11 08:39:04;;;;;;;5.75;4.00;;;;;;;32.89;39.09;97883.34;4979047;28;20054;-57
2022/05/11 08:41:51;;;;;;;5.32;4.22;;;;;;;33.42;39.45;97884.13;4979547;28;20058;-58
2022/05/11 08:44:21;;;;;;;5.75;4.05;;;;;;;33.85;37.21;97882.72;4979449;28;20022;-57
2022/05/11 08:46:53;;;;;;;5.05;4.10;;;;;;;33.83;37.91;97886.72;4979445;28;20141;-57
2022/05/11 08:49:26;;;;;;;8.82;4.00;;;;;;;34.14;38.06;97880.50;4978972;28;20120;-57
2022/05/11 08:52:04;;;;;;;5.63;3.60;;;;;;;34.66;35.85;97883.91;4979387;28;20054;-57
2022/05/11 08:54:47;;;;;;;7.75;3.55;;;;;;;32.82;37.82;97873.38;4979298;28;20030;-57
2022/05/11 08:57:23;;;;;;;5.03;3.58;;;;;;;33.67;37.46;97877.19;4978911;28;20576;-56
2022/05/11 08:59:50;;;;;;;4.63;3.55;;;;;;;32.81;37.74;97882.53;4979074;28;20038;-57
2022/05/11 09:02:23;;;;;;;9.68;3.50;;;;;;;34.85;35.61;97871.28;4978886;28;20034;-57
2022/05/11 09:04:58;;;;;;;6.88;3.63;;;;;;;33.38;37.21;97882.03;4979025;28;20030;-56
2022/05/11 09:07:24;;;;;;;6.88;3.67;;;;;;;35.78;34.90;97883.06;4978479;28;20053;-57
2022/05/11 09:09:54;;;;;;;6.40;3.20;;;;;;;35.00;34.37;97879.06;4978959;28;20046;-58
2022/05/11 09:12:20;;;;;;;5.68;3.40;;;;;;;33.15;37.15;97886.03;4978605;28;20035;-56
2022/05/11 09:14:51;;;;;;;4.55;3.20;;;;;;;32.58;36.88;97882.94;4978996;28;20484;-57
2022/05/11 09:17:31;;;;;;;5.82;3.38;;;;;;;33.58;35.86;97880.13;4978236;28;20035;-57
2022/05/11 09:20:17;;;;;;;4.72;3.33;;;;;;;32.12;37.80;97885.53;4978806;28;20385;-58
2022/05/11 09:23:03;;;;;;;9.05;3.47;;;;;;;33.51;34.85;97871.19;4978885;28;20088;-57
2022/05/11 09:25:36;;;;;;;5.45;3.42;;;;;;;32.60;36.38;97875.44;4978440;28;20034;-57
2022/05/11 09:28:21;;;;;;;6.05;3.42;;;;;;;33.64;36.07;97874.88;4978781;28;20033;-57
2022/05/11 09:31:09;;;;;;;5.93;3.38;;;;;;;32.97;36.48;97875.03;4978009;28;20820;-56
2022/05/11 09:33:38;;;;;;;8.05;3.50;;;;;;;33.57;35.78;97870.34;4978820;28;20038;-57
2022/05/11 09:36:04;;;;;;;5.50;3.15;;;;;;;33.77;35.70;97875.69;4978456;28;20629;-58
2022/05/11 09:38:40;;;;;;;6.35;3.50;;;;;;;34.56;34.38;97870.88;4978286;28;20765;-57
2022/05/11 09:41:17;;;;;;;9.52;3.10;;;;;;;33.50;33.94;97871.41;4978078;28;20467;-57
2022/05/11 09:43:50;;;;;;;4.82;3.20;;;;;;;30.92;35.06;97875.78;4979092;28;20037;-58
2022/05/11 09:46:33;;;;;;;9.60;3.10;;;;;;;31.65;34.37;97872.69;4978571;28;20093;-56
2022/05/11 09:49:19;;;;;;;5.40;3.17;;;;;;;31.27;36.19;97865.00;4978440;28;20030;-56
2022/05/11 09:51:50;;;;;;;5.78;3.30;;;;;;;32.19;35.18;97856.72;4980899;28;20084;-58
2022/05/11 09:54:18;;;;;;;6.75;3.17;;;;;;;33.32;35.86;97853.97;4982557;28;20030;-56
2022/05/11 09:56:54;;;;;;;5.25;3.40;;;;;;;32.97;35.73;97851.53;4982247;28;20042;-56
2022/05/11 09:59:25;;;;;;;11.82;3.55;;;;;;;32.32;36.35;97851.31;4982664;28;20800;-57
2022/05/11 10:02:11;;;;;;;8.18;3.45;;;;;;;32.54;34.84;97856.53;4982092;28;20797;-58
2022/05/11 10:04:42;;;;;;;5.75;3.03;;;;;;;33.17;33.76;97856.94;4982418;28;20034;-56
2022/05/11 10:07:11;;;;;;;7.00;3.03;;;;;;;32.97;33.16;97853.41;4982081;28;20073;-56
2022/05/11 10:09:44;;;;;;;6.45;3.40;;;;;;;32.95;34.16;97844.69;4981911;28;20101;-57
2022/05/11 10:12:17;;;;;;;5.60;3.10;;;;;;;33.23;34.05;97853.41;4981334;28;20058;-57
2022/05/11 10:23:19;;;;;;;5.55;3.30;;;;;;;32.16;33.96;97840.91;4982344;28;20056;-59
2022/05/11 10:26:00;;;;;;;5.88;3.45;;;;;;;32.45;33.70;97827.03;4981235;28;20125;-57
2022/05/11 10:28:49;;;;;;;6.05;3.47;;;;;;;32.73;33.64;97819.78;4981652;28;20034;-57
2022/05/11 10:31:23;;;;;;;6.78;3.30;;;;;;;31.35;33.56;97828.97;4981277;28;20038;-56
2022/05/11 10:34:04;;;;;;;5.15;3.45;;;;;;;33.19;35.12;97824.31;4980686;28;20030;-56
2022/05/11 10:36:59;;;;;;;8.77;3.75;;;;;;;32.58;35.24;97828.94;4981217;28;20049;-57
2022/05/11 10:39:31;;;;;;;5.95;3.72;;;;;;;32.22;35.15;97819.34;4996650;28;21074;-57
2022/05/11 10:42:09;;;;;;;;;;;;;;;31.27;37.03;97815.69;4982277;28;20117;-56
2022/05/11 10:44:57;;;;;;;9.43;4.40;;;;;;;32.29;36.21;97808.53;4981985;28;19920;-58
2022/05/11 10:47:50;;;;;;;8.93;3.83;;;;;;;32.11;35.37;97813.72;4981362;28;20047;-55
2022/05/11 10:50:41;;;;;;;7.47;3.58;;;;;;;32.85;35.78;97808.13;4980924;28;20117;-56
2022/05/11 10:53:09;;;;;;;8.63;4.10;;;;;;;33.92;34.89;97807.78;4981732;28;20031;-57
2022/05/11 10:55:45;;;;;;;8.10;3.70;;;;;;;31.64;36.83;97803.63;4980755;28;20069;-57
2022/05/11 10:58:26;;;;;;;7.38;3.60;;;;;;;31.62;37.20;97803.00;4981692;28;20026;-57
2022/05/11 11:01:04;;;;;;;8.10;4.03;;;;;;;32.43;35.76;97788.63;4981014;28;20145;-55
2022/05/11 11:03:41;;;;;;;9.07;3.65;;;;;;;32.40;36.70;97794.44;4980670;28;20057;-57
2022/05/11 11:09:30;;;;;;;7.72;3.67;;;;;;;31.26;37.04;97793.28;4980958;28;20033;-57
2022/05/11 11:12:04;;;;;;;9.77;4.50;;;;;;;30.42;38.11;97785.28;4980633;28;20725;-57
2022/05/11 11:14:33;;;;;;;8.73;4.10;;;;;;;31.40;38.11;97782.59;4981528;28;20041;-56
2022/05/11 11:17:01;;;;;;;10.07;4.05;;;;;;;31.14;37.98;97784.13;4995317;28;20446;-55
2022/05/11 11:19:26;;;;;;;10.20;4.28;;;;;;;31.26;37.08;97776.28;4981363;28;20049;-55
2022/05/11 11:21:52;;;;;;;9.57;3.80;;;;;;;30.59;37.98;97775.06;4980477;28;20078;-56
2022/05/11 11:24:23;;;;;;;7.82;3.90;;;;;;;31.32;37.67;97775.47;4980715;28;20757;-56
2022/05/11 11:26:53;;;;;;;9.85;3.80;;;;;;;30.85;38.39;97769.84;4980374;28;20042;-54
2022/05/11 11:29:22;;;;;;;7.90;3.90;;;;;;;31.08;37.51;97764.22;4980588;28;20038;-56
2022/05/11 11:31:56;;;;;;;10.38;4.05;;;;;;;30.56;37.92;97766.34;4980692;28;20045;-56
2022/05/11 11:34:25;;;;;;;8.88;3.72;;;;;;;30.78;37.94;97768.97;4981248;28;20462;-57
2022/05/11 11:36:52;;;;;;;9.32;3.80;;;;;;;30.67;37.90;97758.75;4980181;28;20588;-55
2022/05/11 11:39:48;;;;;;;9.20;4.20;;;;;;;30.66;37.46;97759.78;4980564;28;20053;-56
2022/05/11 11:42:34;;;;;;;10.77;4.10;;;;;;;31.18;36.86;97753.06;4980082;28;20077;-55
2022/05/11 11:45:01;;;;;;;9.93;4.00;;;;;;;30.69;38.14;97749.44;4980482;28;20030;-55
2022/05/11 11:47:26;;;;;;;10.77;4.00;;;;;;;29.64;37.33;97759.06;4980313;28;20042;-55
2022/05/11 11:49:54;;;;;;;12.10;4.05;;;;;;;30.44;37.98;97738.31;4980330;28;20044;-54
2022/05/11 11:52:38;;;;;;;10.88;4.28;;;;;;;29.76;38.27;97736.06;4979862;28;20050;-55
2022/05/11 11:55:27;;;;;;;10.95;4.10;;;;;;;30.42;37.89;97732.31;4979809;28;20088;-56
2022/05/11 11:58:11;;;;;;;10.90;4.20;;;;;;;29.62;38.12;97730.72;4979284;28;20046;-56
2022/05/11 12:00:46;;;;;;;12.68;4.50;;;;;;;30.47;38.41;97745.97;4979647;28;20058;-55
2022/05/11 12:03:18;;;;;;;10.75;4.25;;;;;;;30.29;37.74;97732.16;4980823;28;20026;-58
2022/05/11 12:05:47;;;;;;;11.07;4.45;;;;;;;30.55;37.46;97721.63;4979795;28;20041;-55